sensor_id;sensor_type;location;lat;lon;timestamp;P1;durP1;ratioP1;P2;durP2;ratioP2
20966;SDS011;10642;50.682;18.510;2023-04-25T00:02:12;10.47;;;6.47;;
20966;SDS011;10642;50.682;18.510;2023-04-25T00:04:39;11.03;;;6.77;;
20966;SDS011;10642;50.682;18.510;2023-04-25T00:07:07;14.13;;;7.23;;
20966;SDS011;10642;50.682;18.510;2023-04-25T00:09:34;12.07;;;6.43;;
20966;SDS011;10642;50.682;18.510;2023-04-25T00:12:00;9.70;;;6.30;;
20966;SDS011;10642;50.682;18.510;2023-04-25T00:14:28;12.33;;;6.80;;
20966;SDS011;10642;50.682;18.510;2023-04-25T00:16:55;11.60;;;6.80;;
20966;SDS011;10642;50.682;18.510;2023-04-25T00:19:22;10.47;;;6.50;;
20966;SDS011;10642;50.682;18.510;2023-04-25T00:21:49;12.17;;;6.83;;
20966;SDS011;10642;50.682;18.510;2023-04-25T00:24:16;9.63;;;6.83;;
20966;SDS011;10642;50.682;18.510;2023-04-25T00:26:43;12.33;;;7.27;;
20966;SDS011;10642;50.682;18.510;2023-04-25T00:29:10;13.33;;;6.90;;
20966;SDS011;10642;50.682;18.510;2023-04-25T00:31:37;11.10;;;6.57;;
20966;SDS011;10642;50.682;18.510;2023-04-25T00:34:05;11.60;;;6.93;;
20966;SDS011;10642;50.682;18.510;2023-04-25T00:36:32;12.30;;;6.80;;
20966;SDS011;10642;50.682;18.510;2023-04-25T00:38:59;9.53;;;6.23;;
20966;SDS011;10642;50.682;18.510;2023-04-25T00:41:26;10.73;;;6.20;;
20966;SDS011;10642;50.682;18.510;2023-04-25T00:43:53;9.47;;;6.77;;
20966;SDS011;10642;50.682;18.510;2023-04-25T00:46:21;9.90;;;6.60;;
20966;SDS011;10642;50.682;18.510;2023-04-25T00:48:48;9.63;;;6.20;;
20966;SDS011;10642;50.682;18.510;2023-04-25T00:51:24;11.77;;;6.83;;
20966;SDS011;10642;50.682;18.510;2023-04-25T00:53:53;9.57;;;6.00;;
20966;SDS011;10642;50.682;18.510;2023-04-25T00:56:20;11.23;;;7.10;;
20966;SDS011;10642;50.682;18.510;2023-04-25T00:58:47;11.53;;;6.50;;
20966;SDS011;10642;50.682;18.510;2023-04-25T01:01:14;15.03;;;5.97;;
20966;SDS011;10642;50.682;18.510;2023-04-25T01:03:41;8.10;;;5.70;;
20966;SDS011;10642;50.682;18.510;2023-04-25T01:06:10;8.27;;;5.57;;
20966;SDS011;10642;50.682;18.510;2023-04-25T01:08:37;9.27;;;5.63;;
20966;SDS011;10642;50.682;18.510;2023-04-25T01:11:05;8.90;;;5.20;;
20966;SDS011;10642;50.682;18.510;2023-04-25T01:13:32;9.07;;;4.77;;
20966;SDS011;10642;50.682;18.510;2023-04-25T01:15:59;11.67;;;4.87;;
20966;SDS011;10642;50.682;18.510;2023-04-25T01:18:26;9.53;;;4.40;;
20966;SDS011;10642;50.682;18.510;2023-04-25T01:20:54;7.90;;;4.63;;
20966;SDS011;10642;50.682;18.510;2023-04-25T01:23:21;8.17;;;4.33;;
20966;SDS011;10642;50.682;18.510;2023-04-25T01:25:49;8.90;;;5.00;;
20966;SDS011;10642;50.682;18.510;2023-04-25T01:28:16;10.63;;;5.27;;
20966;SDS011;10642;50.682;18.510;2023-04-25T01:30:43;6.67;;;4.83;;
20966;SDS011;10642;50.682;18.510;2023-04-25T01:33:11;8.90;;;4.53;;
20966;SDS011;10642;50.682;18.510;2023-04-25T01:35:39;9.23;;;5.10;;
20966;SDS011;10642;50.682;18.510;2023-04-25T01:38:07;10.43;;;5.33;;
20966;SDS011;10642;50.682;18.510;2023-04-25T01:40:33;12.30;;;6.53;;
20966;SDS011;10642;50.682;18.510;2023-04-25T01:43:01;8.70;;;5.40;;
20966;SDS011;10642;50.682;18.510;2023-04-25T01:45:28;8.20;;;5.90;;
20966;SDS011;10642;50.682;18.510;2023-04-25T01:47:55;11.23;;;5.93;;
20966;SDS011;10642;50.682;18.510;2023-04-25T01:50:26;10.47;;;5.77;;
20966;SDS011;10642;50.682;18.510;2023-04-25T01:52:53;10.80;;;5.80;;
20966;SDS011;10642;50.682;18.510;2023-04-25T01:55:21;9.83;;;6.00;;
20966;SDS011;10642;50.682;18.510;2023-04-25T01:57:56;12.30;;;5.20;;
20966;SDS011;10642;50.682;18.510;2023-04-25T02:00:35;8.27;;;4.90;;
20966;SDS011;10642;50.682;18.510;2023-04-25T02:03:05;6.53;;;4.37;;
20966;SDS011;10642;50.682;18.510;2023-04-25T02:05:36;7.90;;;4.80;;
20966;SDS011;10642;50.682;18.510;2023-04-25T02:08:07;7.80;;;4.03;;
20966;SDS011;10642;50.682;18.510;2023-04-25T02:10:35;9.43;;;4.67;;
20966;SDS011;10642;50.682;18.510;2023-04-25T02:13:22;8.40;;;3.97;;
20966;SDS011;10642;50.682;18.510;2023-04-25T02:16:02;6.40;;;4.00;;
20966;SDS011;10642;50.682;18.510;2023-04-25T02:18:29;7.10;;;3.97;;
20966;SDS011;10642;50.682;18.510;2023-04-25T02:20:59;6.40;;;3.90;;
20966;SDS011;10642;50.682;18.510;2023-04-25T02:23:26;11.10;;;3.63;;
20966;SDS011;10642;50.682;18.510;2023-04-25T02:25:53;7.33;;;3.47;;
20966;SDS011;10642;50.682;18.510;2023-04-25T02:28:21;4.33;;;2.70;;
20966;SDS011;10642;50.682;18.510;2023-04-25T02:30:48;5.87;;;2.67;;
20966;SDS011;10642;50.682;18.510;2023-04-25T02:33:15;4.83;;;3.10;;
20966;SDS011;10642;50.682;18.510;2023-04-25T02:35:43;4.00;;;2.30;;
20966;SDS011;10642;50.682;18.510;2023-04-25T02:38:10;3.77;;;2.37;;
20966;SDS011;10642;50.682;18.510;2023-04-25T02:40:39;3.43;;;2.27;;
20966;SDS011;10642;50.682;18.510;2023-04-25T02:43:05;5.23;;;2.67;;
20966;SDS011;10642;50.682;18.510;2023-04-25T02:45:33;4.97;;;2.23;;
20966;SDS011;10642;50.682;18.510;2023-04-25T02:48:00;7.37;;;3.07;;
20966;SDS011;10642;50.682;18.510;2023-04-25T02:50:30;5.33;;;2.70;;
20966;SDS011;10642;50.682;18.510;2023-04-25T02:52:58;3.93;;;2.23;;
20966;SDS011;10642;50.682;18.510;2023-04-25T02:55:31;5.73;;;3.07;;
20966;SDS011;10642;50.682;18.510;2023-04-25T02:58:00;11.03;;;4.00;;
20966;SDS011;10642;50.682;18.510;2023-04-25T03:00:43;9.77;;;3.83;;
20966;SDS011;10642;50.682;18.510;2023-04-25T03:03:10;8.73;;;3.60;;
20966;SDS011;10642;50.682;18.510;2023-04-25T03:05:37;6.93;;;3.00;;
20966;SDS011;10642;50.682;18.510;2023-04-25T03:08:05;5.17;;;3.40;;
20966;SDS011;10642;50.682;18.510;2023-04-25T03:10:33;4.97;;;3.20;;
20966;SDS011;10642;50.682;18.510;2023-04-25T03:13:04;6.03;;;3.17;;
20966;SDS011;10642;50.682;18.510;2023-04-25T03:15:32;3.80;;;2.60;;
20966;SDS011;10642;50.682;18.510;2023-04-25T03:17:59;4.87;;;3.07;;
20966;SDS011;10642;50.682;18.510;2023-04-25T03:20:26;4.53;;;2.60;;
20966;SDS011;10642;50.682;18.510;2023-04-25T03:22:53;4.63;;;2.80;;
20966;SDS011;10642;50.682;18.510;2023-04-25T03:25:19;5.57;;;3.03;;
20966;SDS011;10642;50.682;18.510;2023-04-25T03:27:46;6.83;;;2.80;;
20966;SDS011;10642;50.682;18.510;2023-04-25T03:30:13;4.30;;;2.83;;
20966;SDS011;10642;50.682;18.510;2023-04-25T03:32:43;4.00;;;2.50;;
20966;SDS011;10642;50.682;18.510;2023-04-25T03:35:14;4.33;;;2.27;;
20966;SDS011;10642;50.682;18.510;2023-04-25T03:37:41;5.97;;;2.73;;
20966;SDS011;10642;50.682;18.510;2023-04-25T03:40:17;5.03;;;2.20;;
20966;SDS011;10642;50.682;18.510;2023-04-25T03:43:04;4.43;;;2.33;;
20966;SDS011;10642;50.682;18.510;2023-04-25T03:45:32;3.73;;;2.40;;
20966;SDS011;10642;50.682;18.510;2023-04-25T03:47:59;4.80;;;2.30;;
20966;SDS011;10642;50.682;18.510;2023-04-25T03:50:28;3.83;;;2.40;;
20966;SDS011;10642;50.682;18.510;2023-04-25T03:52:55;4.37;;;2.90;;
20966;SDS011;10642;50.682;18.510;2023-04-25T03:55:25;4.47;;;2.50;;
20966;SDS011;10642;50.682;18.510;2023-04-25T03:57:51;4.80;;;2.90;;
20966;SDS011;10642;50.682;18.510;2023-04-25T04:00:18;5.53;;;3.00;;
20966;SDS011;10642;50.682;18.510;2023-04-25T04:02:50;5.57;;;3.93;;
20966;SDS011;10642;50.682;18.510;2023-04-25T04:05:17;6.67;;;3.40;;
20966;SDS011;10642;50.682;18.510;2023-04-25T04:07:50;10.13;;;3.43;;
20966;SDS011;10642;50.682;18.510;2023-04-25T04:10:18;3.30;;;2.70;;
20966;SDS011;10642;50.682;18.510;2023-04-25T04:12:45;4.03;;;2.80;;
20966;SDS011;10642;50.682;18.510;2023-04-25T04:15:12;5.03;;;3.20;;
20966;SDS011;10642;50.682;18.510;2023-04-25T04:17:40;3.93;;;2.90;;
20966;SDS011;10642;50.682;18.510;2023-04-25T04:20:08;5.57;;;2.83;;
20966;SDS011;10642;50.682;18.510;2023-04-25T04:22:37;4.10;;;2.87;;
20966;SDS011;10642;50.682;18.510;2023-04-25T04:25:08;4.07;;;3.10;;
20966;SDS011;10642;50.682;18.510;2023-04-25T04:28:00;4.27;;;2.60;;
20966;SDS011;10642;50.682;18.510;2023-04-25T04:30:47;4.43;;;2.90;;
20966;SDS011;10642;50.682;18.510;2023-04-25T04:33:18;4.17;;;3.17;;
20966;SDS011;10642;50.682;18.510;2023-04-25T04:35:53;3.43;;;2.60;;
20966;SDS011;10642;50.682;18.510;2023-04-25T04:38:22;4.93;;;2.80;;
20966;SDS011;10642;50.682;18.510;2023-04-25T04:40:50;6.13;;;2.50;;
20966;SDS011;10642;50.682;18.510;2023-04-25T04:43:34;7.70;;;2.40;;
20966;SDS011;10642;50.682;18.510;2023-04-25T04:46:07;3.63;;;2.90;;
20966;SDS011;10642;50.682;18.510;2023-04-25T04:48:43;5.27;;;2.63;;
20966;SDS011;10642;50.682;18.510;2023-04-25T04:51:35;4.87;;;3.17;;
20966;SDS011;10642;50.682;18.510;2023-04-25T04:54:23;7.60;;;3.47;;
20966;SDS011;10642;50.682;18.510;2023-04-25T04:57:16;5.23;;;3.23;;
20966;SDS011;10642;50.682;18.510;2023-04-25T05:00:00;4.17;;;2.87;;
20966;SDS011;10642;50.682;18.510;2023-04-25T05:02:39;7.10;;;3.00;;
20966;SDS011;10642;50.682;18.510;2023-04-25T05:05:27;4.50;;;2.37;;
20966;SDS011;10642;50.682;18.510;2023-04-25T05:08:29;3.53;;;2.43;;
20966;SDS011;10642;50.682;18.510;2023-04-25T05:11:12;3.30;;;2.43;;
20966;SDS011;10642;50.682;18.510;2023-04-25T05:13:59;5.40;;;2.40;;
20966;SDS011;10642;50.682;18.510;2023-04-25T05:16:45;5.83;;;2.50;;
20966;SDS011;10642;50.682;18.510;2023-04-25T05:19:32;5.13;;;2.33;;
20966;SDS011;10642;50.682;18.510;2023-04-25T05:22:19;5.17;;;2.63;;
20966;SDS011;10642;50.682;18.510;2023-04-25T05:25:09;5.73;;;2.90;;
20966;SDS011;10642;50.682;18.510;2023-04-25T05:28:09;5.27;;;2.90;;
20966;SDS011;10642;50.682;18.510;2023-04-25T05:31:02;5.03;;;2.97;;
20966;SDS011;10642;50.682;18.510;2023-04-25T05:33:37;6.97;;;3.40;;
20966;SDS011;10642;50.682;18.510;2023-04-25T05:36:04;5.10;;;3.30;;
20966;SDS011;10642;50.682;18.510;2023-04-25T05:38:31;5.30;;;3.13;;
20966;SDS011;10642;50.682;18.510;2023-04-25T05:41:32;4.97;;;3.10;;
20966;SDS011;10642;50.682;18.510;2023-04-25T05:44:12;8.40;;;2.83;;
20966;SDS011;10642;50.682;18.510;2023-04-25T05:46:56;6.27;;;2.83;;
20966;SDS011;10642;50.682;18.510;2023-04-25T05:49:32;4.90;;;2.83;;
20966;SDS011;10642;50.682;18.510;2023-04-25T05:52:22;10.23;;;5.33;;
20966;SDS011;10642;50.682;18.510;2023-04-25T05:55:11;7.33;;;3.20;;
20966;SDS011;10642;50.682;18.510;2023-04-25T05:57:39;5.40;;;3.03;;
20966;SDS011;10642;50.682;18.510;2023-04-25T06:00:08;7.00;;;3.20;;
20966;SDS011;10642;50.682;18.510;2023-04-25T06:02:44;6.13;;;3.47;;
20966;SDS011;10642;50.682;18.510;2023-04-25T06:05:13;4.47;;;3.13;;
20966;SDS011;10642;50.682;18.510;2023-04-25T06:07:40;6.43;;;4.07;;
20966;SDS011;10642;50.682;18.510;2023-04-25T06:10:07;6.73;;;3.83;;
20966;SDS011;10642;50.682;18.510;2023-04-25T06:12:34;5.67;;;3.73;;
20966;SDS011;10642;50.682;18.510;2023-04-25T06:15:03;6.27;;;3.73;;
20966;SDS011;10642;50.682;18.510;2023-04-25T06:17:42;5.57;;;3.43;;
20966;SDS011;10642;50.682;18.510;2023-04-25T06:20:09;6.87;;;3.77;;
20966;SDS011;10642;50.682;18.510;2023-04-25T06:22:36;9.23;;;4.00;;
20966;SDS011;10642;50.682;18.510;2023-04-25T06:25:03;6.33;;;3.30;;
20966;SDS011;10642;50.682;18.510;2023-04-25T06:27:32;6.30;;;3.80;;
20966;SDS011;10642;50.682;18.510;2023-04-25T06:29:59;6.33;;;4.03;;
20966;SDS011;10642;50.682;18.510;2023-04-25T06:32:26;8.47;;;4.23;;
20966;SDS011;10642;50.682;18.510;2023-04-25T06:34:57;6.57;;;4.17;;
20966;SDS011;10642;50.682;18.510;2023-04-25T06:37:24;8.53;;;4.37;;
20966;SDS011;10642;50.682;18.510;2023-04-25T06:39:51;7.43;;;4.50;;
20966;SDS011;10642;50.682;18.510;2023-04-25T06:42:18;9.53;;;4.70;;
20966;SDS011;10642;50.682;18.510;2023-04-25T06:44:55;8.00;;;4.47;;
20966;SDS011;10642;50.682;18.510;2023-04-25T06:47:22;6.63;;;4.50;;
20966;SDS011;10642;50.682;18.510;2023-04-25T06:49:49;8.60;;;4.33;;
20966;SDS011;10642;50.682;18.510;2023-04-25T06:52:16;6.63;;;4.40;;
20966;SDS011;10642;50.682;18.510;2023-04-25T06:54:45;6.80;;;4.57;;
20966;SDS011;10642;50.682;18.510;2023-04-25T06:57:32;9.67;;;5.53;;
20966;SDS011;10642;50.682;18.510;2023-04-25T07:00:16;7.17;;;4.70;;
20966;SDS011;10642;50.682;18.510;2023-04-25T07:02:44;13.17;;;5.03;;
20966;SDS011;10642;50.682;18.510;2023-04-25T07:05:11;7.90;;;5.10;;
20966;SDS011;10642;50.682;18.510;2023-04-25T07:07:38;7.83;;;4.57;;
20966;SDS011;10642;50.682;18.510;2023-04-25T07:10:05;7.87;;;4.67;;
20966;SDS011;10642;50.682;18.510;2023-04-25T07:12:32;10.30;;;5.30;;
20966;SDS011;10642;50.682;18.510;2023-04-25T07:14:59;8.53;;;5.53;;
20966;SDS011;10642;50.682;18.510;2023-04-25T07:17:32;8.20;;;4.90;;
20966;SDS011;10642;50.682;18.510;2023-04-25T07:20:00;8.87;;;4.60;;
20966;SDS011;10642;50.682;18.510;2023-04-25T07:22:27;7.67;;;4.60;;
20966;SDS011;10642;50.682;18.510;2023-04-25T07:24:54;8.10;;;4.47;;
20966;SDS011;10642;50.682;18.510;2023-04-25T07:27:24;7.40;;;4.40;;
20966;SDS011;10642;50.682;18.510;2023-04-25T07:29:59;9.87;;;4.80;;
20966;SDS011;10642;50.682;18.510;2023-04-25T07:32:26;6.67;;;4.33;;
20966;SDS011;10642;50.682;18.510;2023-04-25T07:34:53;7.00;;;4.30;;
20966;SDS011;10642;50.682;18.510;2023-04-25T07:37:20;5.70;;;4.07;;
20966;SDS011;10642;50.682;18.510;2023-04-25T07:40:08;5.63;;;3.83;;
20966;SDS011;10642;50.682;18.510;2023-04-25T07:42:40;11.13;;;4.73;;
20966;SDS011;10642;50.682;18.510;2023-04-25T07:45:09;8.70;;;4.77;;
20966;SDS011;10642;50.682;18.510;2023-04-25T07:47:38;7.10;;;3.40;;
20966;SDS011;10642;50.682;18.510;2023-04-25T07:50:06;6.83;;;3.77;;
20966;SDS011;10642;50.682;18.510;2023-04-25T07:52:33;6.03;;;4.40;;
20966;SDS011;10642;50.682;18.510;2023-04-25T07:55:07;5.13;;;3.30;;
20966;SDS011;10642;50.682;18.510;2023-04-25T07:57:51;5.03;;;3.50;;
20966;SDS011;10642;50.682;18.510;2023-04-25T08:00:19;3.87;;;3.03;;
20966;SDS011;10642;50.682;18.510;2023-04-25T08:02:53;5.73;;;3.77;;
20966;SDS011;10642;50.682;18.510;2023-04-25T08:05:20;4.97;;;3.17;;
20966;SDS011;10642;50.682;18.510;2023-04-25T08:07:56;4.90;;;2.80;;
20966;SDS011;10642;50.682;18.510;2023-04-25T08:10:23;6.83;;;3.50;;
20966;SDS011;10642;50.682;18.510;2023-04-25T08:12:50;6.30;;;3.00;;
20966;SDS011;10642;50.682;18.510;2023-04-25T08:15:17;3.87;;;2.60;;
20966;SDS011;10642;50.682;18.510;2023-04-25T08:17:44;5.10;;;3.10;;
20966;SDS011;10642;50.682;18.510;2023-04-25T08:20:12;5.30;;;2.57;;
20966;SDS011;10642;50.682;18.510;2023-04-25T08:22:39;3.87;;;2.67;;
20966;SDS011;10642;50.682;18.510;2023-04-25T08:25:33;4.43;;;2.70;;
20966;SDS011;10642;50.682;18.510;2023-04-25T08:28:01;4.03;;;2.33;;
20966;SDS011;10642;50.682;18.510;2023-04-25T08:30:30;5.67;;;3.10;;
20966;SDS011;10642;50.682;18.510;2023-04-25T08:32:57;7.80;;;3.10;;
20966;SDS011;10642;50.682;18.510;2023-04-25T08:35:43;5.60;;;2.70;;
20966;SDS011;10642;50.682;18.510;2023-04-25T08:38:12;4.67;;;2.50;;
20966;SDS011;10642;50.682;18.510;2023-04-25T08:40:39;4.00;;;2.37;;
20966;SDS011;10642;50.682;18.510;2023-04-25T08:43:13;4.60;;;2.80;;
20966;SDS011;10642;50.682;18.510;2023-04-25T08:45:41;4.43;;;2.47;;
20966;SDS011;10642;50.682;18.510;2023-04-25T08:48:14;2.90;;;2.17;;
20966;SDS011;10642;50.682;18.510;2023-04-25T08:51:01;8.27;;;3.13;;
20966;SDS011;10642;50.682;18.510;2023-04-25T08:53:29;5.03;;;2.77;;
20966;SDS011;10642;50.682;18.510;2023-04-25T08:55:59;5.77;;;2.60;;
20966;SDS011;10642;50.682;18.510;2023-04-25T08:58:32;3.90;;;2.57;;
20966;SDS011;10642;50.682;18.510;2023-04-25T09:00:59;4.43;;;2.10;;
20966;SDS011;10642;50.682;18.510;2023-04-25T09:03:30;6.10;;;1.93;;
20966;SDS011;10642;50.682;18.510;2023-04-25T09:05:57;5.13;;;2.60;;
20966;SDS011;10642;50.682;18.510;2023-04-25T09:08:24;7.37;;;2.57;;
20966;SDS011;10642;50.682;18.510;2023-04-25T09:10:52;3.60;;;2.03;;
20966;SDS011;10642;50.682;18.510;2023-04-25T09:13:26;4.27;;;2.40;;
20966;SDS011;10642;50.682;18.510;2023-04-25T09:16:12;5.60;;;2.30;;
20966;SDS011;10642;50.682;18.510;2023-04-25T09:19:03;3.10;;;1.93;;
20966;SDS011;10642;50.682;18.510;2023-04-25T09:21:31;5.00;;;2.27;;
20966;SDS011;10642;50.682;18.510;2023-04-25T09:23:58;5.30;;;2.10;;
20966;SDS011;10642;50.682;18.510;2023-04-25T09:26:26;3.20;;;2.10;;
20966;SDS011;10642;50.682;18.510;2023-04-25T09:29:06;5.37;;;2.23;;
20966;SDS011;10642;50.682;18.510;2023-04-25T09:31:36;4.63;;;2.30;;
20966;SDS011;10642;50.682;18.510;2023-04-25T09:34:07;4.07;;;2.20;;
20966;SDS011;10642;50.682;18.510;2023-04-25T09:36:41;4.30;;;2.07;;
20966;SDS011;10642;50.682;18.510;2023-04-25T09:39:34;6.73;;;2.73;;
20966;SDS011;10642;50.682;18.510;2023-04-25T09:42:10;9.87;;;2.83;;
20966;SDS011;10642;50.682;18.510;2023-04-25T09:44:38;3.33;;;2.20;;
20966;SDS011;10642;50.682;18.510;2023-04-25T09:47:12;5.33;;;2.20;;
20966;SDS011;10642;50.682;18.510;2023-04-25T09:49:40;5.20;;;1.70;;
20966;SDS011;10642;50.682;18.510;2023-04-25T09:52:16;6.77;;;2.93;;
20966;SDS011;10642;50.682;18.510;2023-04-25T09:54:58;6.00;;;2.67;;
20966;SDS011;10642;50.682;18.510;2023-04-25T09:57:31;5.03;;;2.37;;
20966;SDS011;10642;50.682;18.510;2023-04-25T09:59:58;3.30;;;2.27;;
20966;SDS011;10642;50.682;18.510;2023-04-25T10:02:39;4.90;;;2.33;;
20966;SDS011;10642;50.682;18.510;2023-04-25T10:05:15;3.00;;;1.80;;
20966;SDS011;10642;50.682;18.510;2023-04-25T10:07:44;4.97;;;2.17;;
20966;SDS011;10642;50.682;18.510;2023-04-25T10:10:15;4.87;;;2.10;;
20966;SDS011;10642;50.682;18.510;2023-04-25T10:12:42;5.00;;;1.87;;
20966;SDS011;10642;50.682;18.510;2023-04-25T10:15:10;4.27;;;2.27;;
20966;SDS011;10642;50.682;18.510;2023-04-25T10:17:38;3.60;;;2.10;;
20966;SDS011;10642;50.682;18.510;2023-04-25T10:20:06;7.77;;;2.70;;
20966;SDS011;10642;50.682;18.510;2023-04-25T10:22:38;3.60;;;2.03;;
20966;SDS011;10642;50.682;18.510;2023-04-25T10:25:06;3.40;;;2.07;;
20966;SDS011;10642;50.682;18.510;2023-04-25T10:27:33;4.27;;;2.17;;
20966;SDS011;10642;50.682;18.510;2023-04-25T10:30:04;5.10;;;2.03;;
20966;SDS011;10642;50.682;18.510;2023-04-25T10:32:31;4.17;;;2.13;;
20966;SDS011;10642;50.682;18.510;2023-04-25T10:35:15;5.90;;;2.30;;
20966;SDS011;10642;50.682;18.510;2023-04-25T10:40:39;7.17;;;3.20;;
20966;SDS011;10642;50.682;18.510;2023-04-25T10:45:52;11.90;;;3.73;;
20966;SDS011;10642;50.682;18.510;2023-04-25T10:48:29;8.90;;;3.10;;
20966;SDS011;10642;50.682;18.510;2023-04-25T10:53:36;5.37;;;2.40;;
20966;SDS011;10642;50.682;18.510;2023-04-25T10:56:11;6.40;;;3.07;;
20966;SDS011;10642;50.682;18.510;2023-04-25T10:58:45;5.57;;;2.50;;
20966;SDS011;10642;50.682;18.510;2023-04-25T11:01:19;5.00;;;2.37;;
20966;SDS011;10642;50.682;18.510;2023-04-25T11:03:47;3.50;;;2.40;;
20966;SDS011;10642;50.682;18.510;2023-04-25T11:08:48;4.53;;;2.80;;
20966;SDS011;10642;50.682;18.510;2023-04-25T11:11:18;4.53;;;2.67;;
20966;SDS011;10642;50.682;18.510;2023-04-25T11:13:49;6.27;;;3.13;;
20966;SDS011;10642;50.682;18.510;2023-04-25T11:16:17;7.03;;;3.30;;
20966;SDS011;10642;50.682;18.510;2023-04-25T11:18:48;5.77;;;3.00;;
20966;SDS011;10642;50.682;18.510;2023-04-25T11:21:16;6.50;;;2.90;;
20966;SDS011;10642;50.682;18.510;2023-04-25T11:23:46;6.23;;;3.50;;
20966;SDS011;10642;50.682;18.510;2023-04-25T11:26:13;5.67;;;3.80;;
20966;SDS011;10642;50.682;18.510;2023-04-25T11:28:40;4.83;;;2.63;;
20966;SDS011;10642;50.682;18.510;2023-04-25T11:31:11;5.23;;;3.20;;
20966;SDS011;10642;50.682;18.510;2023-04-25T11:33:38;6.47;;;3.43;;
20966;SDS011;10642;50.682;18.510;2023-04-25T11:36:07;6.07;;;3.23;;
20966;SDS011;10642;50.682;18.510;2023-04-25T11:38:34;4.70;;;3.73;;
20966;SDS011;10642;50.682;18.510;2023-04-25T11:41:01;6.50;;;2.93;;
20966;SDS011;10642;50.682;18.510;2023-04-25T11:43:28;8.87;;;3.97;;
20966;SDS011;10642;50.682;18.510;2023-04-25T11:45:55;5.73;;;3.40;;
20966;SDS011;10642;50.682;18.510;2023-04-25T11:48:22;7.53;;;4.17;;
20966;SDS011;10642;50.682;18.510;2023-04-25T11:50:53;21.17;;;5.90;;
20966;SDS011;10642;50.682;18.510;2023-04-25T11:53:20;16.40;;;5.60;;
20966;SDS011;10642;50.682;18.510;2023-04-25T11:55:47;10.43;;;4.27;;
20966;SDS011;10642;50.682;18.510;2023-04-25T11:58:14;4.67;;;3.70;;
20966;SDS011;10642;50.682;18.510;2023-04-25T12:00:41;11.37;;;4.33;;
20966;SDS011;10642;50.682;18.510;2023-04-25T12:03:17;8.97;;;4.27;;
20966;SDS011;10642;50.682;18.510;2023-04-25T12:05:44;5.43;;;3.33;;
20966;SDS011;10642;50.682;18.510;2023-04-25T12:08:12;4.77;;;3.50;;
20966;SDS011;10642;50.682;18.510;2023-04-25T12:10:40;7.23;;;3.57;;
20966;SDS011;10642;50.682;18.510;2023-04-25T12:13:20;9.63;;;4.57;;
20966;SDS011;10642;50.682;18.510;2023-04-25T12:15:47;4.97;;;3.40;;
20966;SDS011;10642;50.682;18.510;2023-04-25T12:18:14;11.33;;;5.60;;
20966;SDS011;10642;50.682;18.510;2023-04-25T12:20:41;16.40;;;7.77;;
20966;SDS011;10642;50.682;18.510;2023-04-25T12:23:09;9.20;;;4.20;;
20966;SDS011;10642;50.682;18.510;2023-04-25T12:25:38;7.90;;;4.03;;
20966;SDS011;10642;50.682;18.510;2023-04-25T12:28:09;5.00;;;3.70;;
20966;SDS011;10642;50.682;18.510;2023-04-25T12:33:23;6.77;;;3.80;;
20966;SDS011;10642;50.682;18.510;2023-04-25T12:35:50;5.57;;;3.80;;
20966;SDS011;10642;50.682;18.510;2023-04-25T12:38:23;4.80;;;3.43;;
20966;SDS011;10642;50.682;18.510;2023-04-25T12:40:50;4.20;;;3.13;;
20966;SDS011;10642;50.682;18.510;2023-04-25T12:43:17;8.10;;;3.80;;
20966;SDS011;10642;50.682;18.510;2023-04-25T12:45:45;5.70;;;3.73;;
20966;SDS011;10642;50.682;18.510;2023-04-25T12:48:14;5.13;;;3.27;;
20966;SDS011;10642;50.682;18.510;2023-04-25T12:50:40;6.30;;;4.00;;
20966;SDS011;10642;50.682;18.510;2023-04-25T12:53:07;7.03;;;4.70;;
20966;SDS011;10642;50.682;18.510;2023-04-25T12:55:34;8.53;;;4.03;;
20966;SDS011;10642;50.682;18.510;2023-04-25T12:58:01;8.13;;;4.20;;
20966;SDS011;10642;50.682;18.510;2023-04-25T13:00:30;5.93;;;4.40;;
20966;SDS011;10642;50.682;18.510;2023-04-25T13:02:57;9.33;;;5.33;;
20966;SDS011;10642;50.682;18.510;2023-04-25T13:05:24;4.87;;;4.20;;
20966;SDS011;10642;50.682;18.510;2023-04-25T13:07:51;5.07;;;4.03;;
20966;SDS011;10642;50.682;18.510;2023-04-25T13:10:18;7.10;;;4.40;;
20966;SDS011;10642;50.682;18.510;2023-04-25T13:12:45;9.70;;;5.23;;
20966;SDS011;10642;50.682;18.510;2023-04-25T13:15:12;8.73;;;5.13;;
20966;SDS011;10642;50.682;18.510;2023-04-25T13:17:39;10.27;;;4.83;;
20966;SDS011;10642;50.682;18.510;2023-04-25T13:20:07;8.43;;;4.90;;
20966;SDS011;10642;50.682;18.510;2023-04-25T13:22:36;12.03;;;6.57;;
20966;SDS011;10642;50.682;18.510;2023-04-25T13:25:04;12.43;;;8.40;;
20966;SDS011;10642;50.682;18.510;2023-04-25T13:27:32;11.13;;;6.13;;
20966;SDS011;10642;50.682;18.510;2023-04-25T13:30:00;9.87;;;5.83;;
20966;SDS011;10642;50.682;18.510;2023-04-25T13:32:28;6.20;;;4.70;;
20966;SDS011;10642;50.682;18.510;2023-04-25T13:34:54;8.63;;;4.73;;
20966;SDS011;10642;50.682;18.510;2023-04-25T13:37:22;4.90;;;4.13;;
20966;SDS011;10642;50.682;18.510;2023-04-25T13:39:50;9.63;;;5.17;;
20966;SDS011;10642;50.682;18.510;2023-04-25T13:42:18;4.67;;;3.70;;
20966;SDS011;10642;50.682;18.510;2023-04-25T13:44:44;10.20;;;4.53;;
20966;SDS011;10642;50.682;18.510;2023-04-25T13:47:12;8.80;;;5.47;;
20966;SDS011;10642;50.682;18.510;2023-04-25T13:49:38;4.43;;;3.60;;
20966;SDS011;10642;50.682;18.510;2023-04-25T13:52:05;5.37;;;3.43;;
20966;SDS011;10642;50.682;18.510;2023-04-25T13:54:32;5.70;;;3.73;;
20966;SDS011;10642;50.682;18.510;2023-04-25T13:56:59;5.43;;;3.93;;
20966;SDS011;10642;50.682;18.510;2023-04-25T13:59:26;4.70;;;3.27;;
20966;SDS011;10642;50.682;18.510;2023-04-25T14:01:53;4.00;;;2.70;;
20966;SDS011;10642;50.682;18.510;2023-04-25T14:04:21;3.70;;;2.20;;
20966;SDS011;10642;50.682;18.510;2023-04-25T14:06:47;5.23;;;3.00;;
20966;SDS011;10642;50.682;18.510;2023-04-25T14:09:14;9.67;;;2.93;;
20966;SDS011;10642;50.682;18.510;2023-04-25T14:11:42;7.63;;;3.07;;
20966;SDS011;10642;50.682;18.510;2023-04-25T14:14:08;4.93;;;2.37;;
20966;SDS011;10642;50.682;18.510;2023-04-25T14:16:35;4.53;;;2.20;;
20966;SDS011;10642;50.682;18.510;2023-04-25T14:19:02;4.97;;;2.30;;
20966;SDS011;10642;50.682;18.510;2023-04-25T14:21:29;3.03;;;1.77;;
20966;SDS011;10642;50.682;18.510;2023-04-25T14:23:59;4.73;;;2.10;;
20966;SDS011;10642;50.682;18.510;2023-04-25T14:26:25;5.93;;;2.97;;
20966;SDS011;10642;50.682;18.510;2023-04-25T14:28:52;5.60;;;2.93;;
20966;SDS011;10642;50.682;18.510;2023-04-25T14:31:19;2.97;;;1.90;;
20966;SDS011;10642;50.682;18.510;2023-04-25T14:33:47;5.23;;;1.80;;
20966;SDS011;10642;50.682;18.510;2023-04-25T14:36:14;3.93;;;2.00;;
20966;SDS011;10642;50.682;18.510;2023-04-25T14:38:41;7.30;;;3.20;;
20966;SDS011;10642;50.682;18.510;2023-04-25T14:41:08;3.07;;;1.90;;
20966;SDS011;10642;50.682;18.510;2023-04-25T14:43:36;5.73;;;2.23;;
20966;SDS011;10642;50.682;18.510;2023-04-25T14:46:03;2.60;;;1.30;;
20966;SDS011;10642;50.682;18.510;2023-04-25T14:48:30;3.17;;;1.50;;
20966;SDS011;10642;50.682;18.510;2023-04-25T14:50:57;10.60;;;7.63;;
20966;SDS011;10642;50.682;18.510;2023-04-25T14:53:24;5.83;;;2.07;;
20966;SDS011;10642;50.682;18.510;2023-04-25T14:55:51;2.40;;;1.60;;
20966;SDS011;10642;50.682;18.510;2023-04-25T14:58:18;3.93;;;2.10;;
20966;SDS011;10642;50.682;18.510;2023-04-25T15:00:45;4.37;;;2.17;;
20966;SDS011;10642;50.682;18.510;2023-04-25T15:03:12;6.00;;;4.80;;
20966;SDS011;10642;50.682;18.510;2023-04-25T15:05:43;3.23;;;1.97;;
20966;SDS011;10642;50.682;18.510;2023-04-25T15:08:10;5.50;;;3.17;;